createdAt,value
2023-04-24T00:01:16.176Z,99973.16
2023-04-24T00:03:45.944Z,99961.06
2023-04-24T00:06:13.900Z,99960.66
2023-04-24T00:08:43.727Z,99956.63
2023-04-24T00:11:13.290Z,99959.44
2023-04-24T00:13:41.661Z,99953.41
2023-04-24T00:16:09.101Z,99953.00
2023-04-24T00:18:36.846Z,99944.97
2023-04-24T00:21:07.249Z,99938.06
2023-04-24T00:23:34.650Z,99938.88
2023-04-24T00:26:01.977Z,99924.78
2023-04-24T00:28:31.924Z,99922.34
2023-04-24T00:31:00.126Z,99918.28
2023-04-24T00:33:30.471Z,99915.88
2023-04-24T00:35:57.810Z,99904.59
2023-04-24T00:38:25.636Z,99905.38
2023-04-24T00:40:56.057Z,99901.75
2023-04-24T00:43:26.818Z,99902.13
2023-04-24T00:45:57.167Z,99900.53
2023-04-24T00:48:27.482Z,99901.34
2023-04-24T00:50:58.382Z,99899.72
2023-04-24T00:53:31.578Z,99894.47
2023-04-24T00:55:59.113Z,99901.75
2023-04-24T00:58:30.065Z,99891.25
2023-04-24T01:00:59.662Z,99893.63
2023-04-24T01:03:32.815Z,99887.63
2023-04-24T01:06:00.958Z,99894.88
2023-04-24T01:08:30.974Z,99887.94
2023-04-24T01:11:01.022Z,99878.66
2023-04-24T01:13:34.646Z,99881.44
2023-04-24T01:16:07.243Z,99879.44
2023-04-24T01:18:48.186Z,99878.22
2023-04-24T01:21:17.588Z,99873.75
2023-04-24T01:23:46.209Z,99873.34
2023-04-24T01:26:18.224Z,99871.31
2023-04-24T01:28:49.837Z,99867.31
2023-04-24T01:31:17.585Z,99860.81
2023-04-24T01:33:46.462Z,99858.03
2023-04-24T01:36:15.256Z,99858.03
2023-04-24T01:38:48.773Z,99850.78
2023-04-24T01:41:21.546Z,99845.97
2023-04-24T01:43:50.781Z,99843.19
2023-04-24T01:46:18.320Z,99840.34
2023-04-24T01:48:49.895Z,99837.94
2023-04-24T01:51:20.735Z,99846.38
2023-04-24T01:53:50.774Z,99844.38
2023-04-24T01:56:23.012Z,99849.25
2023-04-24T01:58:53.566Z,99844.38
2023-04-24T02:01:22.087Z,99842.38
2023-04-24T02:03:52.501Z,99849.63
2023-04-24T02:06:22.263Z,99852.50
2023-04-24T02:08:49.491Z,99855.31
2023-04-24T02:11:20.041Z,99848.88
2023-04-24T02:13:49.851Z,99843.19
2023-04-24T02:16:17.167Z,99844.44
2023-04-24T02:18:46.774Z,99846.84
2023-04-24T02:21:14.068Z,99851.69
2023-04-24T02:23:42.628Z,99851.69
2023-04-24T02:26:13.433Z,99851.31
2023-04-24T02:28:43.276Z,99842.44
2023-04-24T02:31:14.656Z,99830.72
2023-04-24T02:33:44.623Z,99823.06
2023-04-24T02:36:17.057Z,99821.44
2023-04-24T02:38:47.182Z,99824.69
2023-04-24T02:41:17.080Z,99829.94
2023-04-24T02:43:46.664Z,99833.50
2023-04-24T02:46:21.217Z,99835.59
2023-04-24T02:48:48.560Z,99825.88
2023-04-24T02:51:21.300Z,99816.53
2023-04-24T02:53:53.890Z,99817.38
2023-04-24T02:56:28.790Z,99818.63
2023-04-24T02:58:59.083Z,99823.47
2023-04-24T03:01:28.671Z,99822.25
2023-04-24T03:03:56.328Z,99829.13
2023-04-24T03:06:25.046Z,99830.34
2023-04-24T03:08:53.257Z,99819.41
2023-04-24T03:11:21.060Z,99820.63
2023-04-24T03:13:50.886Z,99816.19
2023-04-24T03:16:18.222Z,99821.03
2023-04-24T03:18:48.333Z,99815.81
2023-04-24T03:21:18.523Z,99818.19
2023-04-24T03:23:48.441Z,99819.84
2023-04-24T03:26:16.222Z,99823.47
2023-04-24T03:28:56.126Z,99827.91
2023-04-24T03:31:27.100Z,99817.41
2023-04-24T03:33:57.357Z,99812.97
2023-04-24T03:36:25.063Z,99785.50
2023-04-24T03:38:58.563Z,99796.03
2023-04-24T03:41:38.076Z,99798.84
2023-04-24T03:44:15.144Z,99791.56
2023-04-24T03:46:47.584Z,99807.72
2023-04-24T03:49:17.289Z,99803.31
2023-04-24T03:51:48.069Z,99809.81
2023-04-24T03:54:23.284Z,99810.16
2023-04-24T03:56:57.698Z,99812.53
2023-04-24T03:59:27.151Z,99808.97
2023-04-24T04:02:07.286Z,99821.06
2023-04-24T04:04:37.986Z,99820.69
2023-04-24T04:07:08.816Z,99829.16
2023-04-24T04:09:39.651Z,99826.75
2023-04-24T04:12:11.744Z,99828.75
2023-04-24T04:14:45.234Z,99829.56
2023-04-24T04:17:17.729Z,99829.88
2023-04-24T04:19:47.847Z,99833.13
2023-04-24T04:22:20.137Z,99834.34
2023-04-24T04:24:53.474Z,99835.59
2023-04-24T04:27:23.480Z,99839.16
2023-04-24T04:30:05.601Z,99838.41
2023-04-24T04:32:41.612Z,99832.78
2023-04-24T04:35:11.053Z,99838.81
2023-04-24T04:37:41.543Z,99844.53
2023-04-24T04:40:34.978Z,99841.31
2023-04-24T04:43:08.358Z,99855.03
2023-04-24T04:45:49.390Z,99857.84
2023-04-24T04:48:38.276Z,99874.03
2023-04-24T04:51:12.595Z,99880.88
2023-04-24T04:53:42.786Z,99892.13
2023-04-24T04:56:10.387Z,99887.31
2023-04-24T04:58:41.636Z,99855.41
2023-04-24T05:01:17.208Z,99831.19
2023-04-24T05:03:47.626Z,99835.25
2023-04-24T05:06:21.050Z,99853.81
2023-04-24T05:08:49.831Z,99862.72
2023-04-24T05:11:35.962Z,99863.91
2023-04-24T05:14:12.159Z,99858.25
2023-04-24T05:16:44.399Z,99855.44
2023-04-24T05:19:16.352Z,99855.88
2023-04-24T05:21:46.455Z,99861.91
2023-04-24T05:24:14.901Z,99870.81
2023-04-24T05:27:03.366Z,99857.84
2023-04-24T05:29:37.764Z,99869.13
2023-04-24T05:32:12.467Z,99863.88
2023-04-24T05:34:43.027Z,99845.72
2023-04-24T05:37:13.165Z,99838.44
2023-04-24T05:39:44.118Z,99823.50
2023-04-24T05:42:16.645Z,99818.66
2023-04-24T05:44:44.726Z,99830.81
2023-04-24T05:47:12.148Z,99846.56
2023-04-24T05:49:42.112Z,99839.31
2023-04-24T05:52:09.957Z,99850.97
2023-04-24T05:54:41.214Z,99836.84
2023-04-24T05:57:11.978Z,99833.66
2023-04-24T05:59:58.901Z,99838.91
2023-04-24T06:02:33.676Z,99855.03
2023-04-24T06:05:09.050Z,99853.84
2023-04-24T06:07:37.598Z,99846.16
2023-04-24T06:10:11.137Z,99847.41
2023-04-24T06:12:42.709Z,99845.78
2023-04-24T06:15:19.569Z,99854.28
2023-04-24T06:18:11.408Z,99861.09
2023-04-24T06:20:41.129Z,99854.22
2023-04-24T06:23:15.508Z,99855.84
2023-04-24T06:25:42.826Z,99856.25
2023-04-24T06:28:13.195Z,99858.25
2023-04-24T06:30:45.266Z,99861.09
2023-04-24T06:33:19.890Z,99848.19
2023-04-24T06:35:51.777Z,99853.44
2023-04-24T06:38:22.148Z,99844.16
2023-04-24T06:40:52.497Z,99859.09
2023-04-24T06:43:27.576Z,99863.91
2023-04-24T06:45:56.275Z,99872.81
2023-04-24T06:48:23.715Z,99884.13
2023-04-24T06:50:56.486Z,99886.97
2023-04-24T06:53:28.790Z,99891.81
2023-04-24T06:56:04.948Z,99885.72
2023-04-24T06:58:40.927Z,99874.38
2023-04-24T07:01:15.397Z,99873.13
2023-04-24T07:03:54.051Z,99859.44
2023-04-24T07:06:31.631Z,99856.22
2023-04-24T07:09:11.506Z,99848.09
2023-04-24T07:11:47.526Z,99851.31
2023-04-24T07:14:25.021Z,99838.41
2023-04-24T07:17:00.033Z,99830.34
2023-04-24T07:19:44.573Z,99833.97
2023-04-24T07:22:21.509Z,99821.47
2023-04-24T07:25:02.815Z,99826.28
2023-04-24T07:27:36.621Z,99823.06
2023-04-24T07:30:15.845Z,99825.47
2023-04-24T07:32:57.617Z,99814.16
2023-04-24T07:35:38.384Z,99815.00
2023-04-24T07:38:29.962Z,99815.38
2023-04-24T07:41:09.119Z,99817.00
2023-04-24T07:43:43.017Z,99807.69
2023-04-24T07:46:25.012Z,99834.34
2023-04-24T07:49:12.339Z,99832.72
2023-04-24T07:51:47.543Z,99835.06
2023-04-24T07:54:23.370Z,99831.47
2023-04-24T07:56:56.497Z,99839.91
2023-04-24T07:59:35.047Z,99839.91
2023-04-24T08:02:07.817Z,99837.13
2023-04-24T08:04:54.171Z,99827.06
2023-04-24T08:07:36.155Z,99833.41
2023-04-24T08:10:15.414Z,99830.22
2023-04-24T08:12:51.343Z,99842.34
2023-04-24T08:15:30.356Z,99839.50
2023-04-24T08:18:17.449Z,99841.53
2023-04-24T08:20:56.949Z,99841.53
2023-04-24T08:23:32.438Z,99847.16
2023-04-24T08:26:10.421Z,99843.88
2023-04-24T08:28:59.413Z,99844.72
2023-04-24T08:31:33.516Z,99855.25
2023-04-24T08:34:12.016Z,99861.69
2023-04-24T08:36:48.984Z,99862.44
2023-04-24T08:39:34.470Z,99860.41
2023-04-24T08:42:11.911Z,99857.97
2023-04-24T08:44:59.113Z,99853.50
2023-04-24T08:47:34.634Z,99855.94
2023-04-24T08:50:13.665Z,99869.63
2023-04-24T08:52:46.950Z,99875.69
2023-04-24T08:55:23.212Z,99875.63
2023-04-24T08:58:02.129Z,99874.44
2023-04-24T09:00:50.654Z,99882.94
2023-04-24T09:03:28.349Z,99884.13
2023-04-24T09:06:10.492Z,99881.75
2023-04-24T09:08:47.164Z,99878.06
2023-04-24T09:11:32.656Z,99882.09
2023-04-24T09:14:08.287Z,99886.56
2023-04-24T09:16:52.167Z,99884.56
2023-04-24T09:19:33.261Z,99898.31
2023-04-24T09:22:17.283Z,99888.59
2023-04-24T09:25:07.472Z,99884.56
2023-04-24T09:27:51.547Z,99891.38
2023-04-24T09:30:31.076Z,99890.56
2023-04-24T09:33:17.214Z,99889.78
2023-04-24T09:36:00.380Z,99896.63
2023-04-24T09:38:44.383Z,99896.22
2023-04-24T09:41:23.556Z,99890.91
2023-04-24T09:43:57.167Z,99886.84
2023-04-24T09:46:36.522Z,99879.97
2023-04-24T09:49:31.505Z,99886.41
2023-04-24T09:52:11.244Z,99879.56
2023-04-24T09:54:55.658Z,99886.31
2023-04-24T09:57:31.575Z,99892.81
2023-04-24T10:00:06.879Z,99888.34
2023-04-24T10:02:53.536Z,99891.16
2023-04-24T10:05:34.586Z,99887.94
2023-04-24T10:08:17.008Z,99887.94
2023-04-24T10:10:54.101Z,99889.13
2023-04-24T10:13:27.133Z,99887.94
2023-04-24T10:16:13.099Z,99887.84
2023-04-24T10:18:48.265Z,99881.06
2023-04-24T10:21:27.147Z,99888.28
2023-04-24T10:24:04.643Z,99884.63
2023-04-24T10:26:38.404Z,99887.06
2023-04-24T10:29:13.611Z,99896.78
2023-04-24T10:31:48.077Z,99894.75
2023-04-24T10:34:30.622Z,99897.94
2023-04-24T10:37:06.770Z,99901.19
2023-04-24T10:39:42.824Z,99899.56
2023-04-24T10:42:18.756Z,99903.53
2023-04-24T10:44:57.660Z,99906.34
2023-04-24T10:47:30.712Z,99904.38
2023-04-24T10:50:04.297Z,99901.09
2023-04-24T10:52:58.080Z,99901.50
2023-04-24T10:55:44.875Z,99911.22
2023-04-24T10:58:18.053Z,99910.78
2023-04-24T11:00:58.739Z,99908.75
2023-04-24T11:03:35.401Z,99908.75
2023-04-24T11:06:09.760Z,99909.94
2023-04-24T11:08:52.459Z,99897.44
2023-04-24T11:11:31.584Z,99909.50
2023-04-24T11:14:07.199Z,99903.88
2023-04-24T11:16:45.936Z,99903.47
2023-04-24T11:19:29.659Z,99893.75
2023-04-24T11:22:18.064Z,99890.91
2023-04-24T11:24:54.657Z,99894.13
2023-04-24T11:27:42.838Z,99897.75
2023-04-24T11:30:21.683Z,99897.75
2023-04-24T11:33:04.238Z,99897.31
2023-04-24T11:35:45.016Z,99897.31
2023-04-24T11:38:24.540Z,99893.28
2023-04-24T11:41:01.132Z,99896.03
2023-04-24T11:43:42.855Z,99895.66
2023-04-24T11:46:21.366Z,99894.13
2023-04-24T11:48:56.688Z,99890.06
2023-04-24T11:51:31.108Z,99891.22
2023-04-24T11:54:13.691Z,99885.97
2023-04-24T11:56:54.927Z,99894.81
2023-04-24T11:59:30.961Z,99885.91
2023-04-24T12:02:03.867Z,99885.06
2023-04-24T12:04:46.211Z,99889.88
2023-04-24T12:07:25.301Z,99887.84
2023-04-24T12:10:03.821Z,99892.31
2023-04-24T12:12:36.753Z,99890.34
2023-04-24T12:15:20.493Z,99888.34
2023-04-24T12:17:57.264Z,99885.53
2023-04-24T12:20:33.362Z,99892.78
2023-04-24T12:23:11.563Z,99879.84
2023-04-24T12:25:44.520Z,99885.91
2023-04-24T12:28:25.321Z,99872.97
2023-04-24T12:31:01.915Z,99876.19
2023-04-24T12:33:36.285Z,99876.97
2023-04-24T12:36:11.333Z,99881.03
2023-04-24T12:38:47.449Z,99877.03
2023-04-24T12:41:22.944Z,99870.63
2023-04-24T12:44:16.521Z,99868.19
2023-04-24T12:46:54.847Z,99864.91
2023-04-24T12:49:34.018Z,99861.75
2023-04-24T12:52:04.042Z,99855.28
2023-04-24T12:54:34.745Z,99860.16
2023-04-24T12:57:05.211Z,99860.16
2023-04-24T12:59:43.781Z,99854.50
2023-04-24T13:02:19.813Z,99843.19
2023-04-24T13:04:55.694Z,99840.75
2023-04-24T13:07:37.299Z,99838.75
2023-04-24T13:10:15.666Z,99840.34
2023-04-24T13:12:51.445Z,99841.09
2023-04-24T13:15:29.505Z,99835.91
2023-04-24T13:18:05.411Z,99842.38
2023-04-24T13:20:42.450Z,99834.28
2023-04-24T13:23:18.223Z,99834.28
2023-04-24T13:25:58.485Z,99833.88
2023-04-24T13:28:34.076Z,99833.88
2023-04-24T13:31:09.319Z,99829.38
2023-04-24T13:33:44.916Z,99834.69
2023-04-24T13:36:23.252Z,99829.38
2023-04-24T13:38:55.927Z,99813.63
2023-04-24T13:41:37.925Z,99812.78
2023-04-24T13:44:13.767Z,99814.75
2023-04-24T13:46:50.039Z,99811.94
2023-04-24T13:49:30.012Z,99813.09
2023-04-24T13:51:59.809Z,99803.44
2023-04-24T13:54:35.008Z,99797.41
2023-04-24T13:57:07.870Z,99794.88
2023-04-24T13:59:47.748Z,99789.28
2023-04-24T14:02:18.070Z,99785.28
2023-04-24T14:04:59.599Z,99790.81
2023-04-24T14:07:32.861Z,99792.06
2023-04-24T14:10:08.895Z,99808.25
2023-04-24T14:12:36.336Z,99794.41
2023-04-24T14:15:06.866Z,99803.31
2023-04-24T14:17:39.311Z,99806.16
2023-04-24T14:20:16.801Z,99801.66
2023-04-24T14:22:47.222Z,99802.53
2023-04-24T14:25:15.916Z,99792.84
2023-04-24T14:27:48.877Z,99796.88
2023-04-24T14:30:22.973Z,99805.81
2023-04-24T14:32:55.260Z,99801.72
2023-04-24T14:35:30.800Z,99804.19
2023-04-24T14:38:04.869Z,99802.97
2023-04-24T14:41:02.498Z,99809.84
2023-04-24T14:43:34.817Z,99802.66
2023-04-24T14:46:05.648Z,99790.53
2023-04-24T14:48:33.440Z,99799.44
2023-04-24T14:51:09.701Z,99801.84
2023-04-24T14:53:39.761Z,99809.91
2023-04-24T14:56:12.664Z,99811.94
2023-04-24T14:58:44.291Z,99805.88
2023-04-24T15:01:16.004Z,99809.94
2023-04-24T15:03:48.067Z,99826.88
2023-04-24T15:06:19.043Z,99829.31
2023-04-24T15:08:50.617Z,99826.88
2023-04-24T15:11:19.960Z,99834.56
2023-04-24T15:13:53.897Z,99828.91
2023-04-24T15:16:29.187Z,99832.13
2023-04-24T15:19:05.586Z,99839.81
2023-04-24T15:21:36.556Z,99838.25
2023-04-24T15:24:15.448Z,99843.88
2023-04-24T15:26:48.278Z,99846.16
2023-04-24T15:29:18.532Z,99847.03
2023-04-24T15:31:52.428Z,99863.94
2023-04-24T15:34:19.927Z,99874.41
2023-04-24T15:36:50.201Z,99877.63
2023-04-24T15:39:18.348Z,99872.72
2023-04-24T15:41:51.288Z,99873.56
2023-04-24T15:44:25.102Z,99858.22
2023-04-24T15:46:56.959Z,99844.94
2023-04-24T15:49:31.658Z,99834.47
2023-04-24T15:52:01.672Z,99820.00
2023-04-24T15:54:39.223Z,99796.19
2023-04-24T15:57:15.347Z,99772.31
2023-04-24T15:59:48.331Z,99762.97
2023-04-24T16:02:20.081Z,99775.13
2023-04-24T16:04:50.195Z,99776.38
2023-04-24T16:07:23.304Z,99776.72
2023-04-24T16:09:56.144Z,99785.66
2023-04-24T16:12:31.664Z,99788.44
2023-04-24T16:15:04.625Z,99796.91
2023-04-24T16:17:36.182Z,99811.94
2023-04-24T16:20:14.410Z,99807.06
2023-04-24T16:22:49.869Z,99812.31
2023-04-24T16:25:22.771Z,99815.63
2023-04-24T16:27:57.974Z,99824.44
2023-04-24T16:30:33.711Z,99834.91
2023-04-24T16:33:10.949Z,99834.03
2023-04-24T16:35:47.317Z,99842.53
2023-04-24T16:38:29.073Z,99854.59
2023-04-24T16:41:08.009Z,99859.41
2023-04-24T16:43:41.334Z,99849.00
2023-04-24T16:46:20.839Z,99859.13
2023-04-24T16:48:53.726Z,99859.94
2023-04-24T16:51:34.252Z,99866.72
2023-04-24T16:54:09.939Z,99868.44
2023-04-24T16:56:46.152Z,99864.75
2023-04-24T16:59:21.706Z,99854.28
2023-04-24T17:01:54.755Z,99847.81
2023-04-24T17:04:35.795Z,99837.28
2023-04-24T17:07:12.239Z,99845.38
2023-04-24T17:09:50.103Z,99855.47
2023-04-24T17:12:22.856Z,99852.69
2023-04-24T17:15:00.693Z,99853.06
2023-04-24T17:17:33.762Z,99856.69
2023-04-24T17:20:18.833Z,99858.72
2023-04-24T17:22:57.391Z,99860.38
2023-04-24T17:25:38.456Z,99874.94
2023-04-24T17:28:32.764Z,99879.00
2023-04-24T17:31:08.305Z,99888.31
2023-04-24T17:33:44.192Z,99889.53
2023-04-24T17:36:19.531Z,99897.22
2023-04-24T17:38:53.061Z,99905.72
2023-04-24T17:41:31.692Z,99913.78
2023-04-24T17:44:07.191Z,99919.94
2023-04-24T17:46:42.992Z,99925.94
2023-04-24T17:49:17.955Z,99923.16
2023-04-24T17:51:53.644Z,99932.44
2023-04-24T17:54:29.422Z,99942.19
2023-04-24T17:57:07.930Z,99951.06
2023-04-24T17:59:41.256Z,99953.06
2023-04-24T18:02:16.808Z,99964.38
2023-04-24T18:04:58.704Z,99964.03
2023-04-24T18:07:34.082Z,99980.56
2023-04-24T18:10:08.616Z,99995.53
2023-04-24T18:12:46.738Z,99997.50
2023-04-24T18:15:25.843Z,100007.19
2023-04-24T18:17:58.508Z,100010.47
2023-04-24T18:20:34.767Z,100012.09
2023-04-24T18:23:09.791Z,100017.31
2023-04-24T18:25:47.384Z,100001.56
2023-04-24T18:28:20.220Z,99993.13
2023-04-24T18:31:01.166Z,99988.72
2023-04-24T18:33:34.067Z,99998.47
2023-04-24T18:36:09.767Z,99999.31
2023-04-24T18:38:45.581Z,100005.41
2023-04-24T18:41:23.726Z,100011.00
2023-04-24T18:43:59.767Z,100026.84
2023-04-24T18:46:38.675Z,100036.13
2023-04-24T18:49:14.724Z,100029.25
2023-04-24T18:51:54.231Z,100040.59
2023-04-24T18:54:31.106Z,100057.97
2023-04-24T18:57:07.806Z,100052.72
2023-04-24T18:59:43.419Z,100071.31
2023-04-24T19:02:20.461Z,100062.47
2023-04-24T19:04:51.298Z,100066.53
2023-04-24T19:07:30.190Z,100070.16
2023-04-24T19:10:06.345Z,100079.88
2023-04-24T19:12:41.919Z,100072.19
2023-04-24T19:15:12.890Z,100083.50
2023-04-24T19:17:44.212Z,100088.75
2023-04-24T19:20:22.774Z,100088.38
2023-04-24T19:22:58.235Z,100083.91
2023-04-24T19:25:34.279Z,100081.94
2023-04-24T19:28:12.349Z,100086.38
2023-04-24T19:30:48.092Z,100094.44
2023-04-24T19:33:23.883Z,100096.47
2023-04-24T19:36:00.311Z,100090.38
2023-04-24T19:38:38.206Z,100083.91
2023-04-24T19:41:10.752Z,100086.75
2023-04-24T19:43:49.343Z,100083.13
2023-04-24T19:46:24.083Z,100078.25
2023-04-24T19:49:02.257Z,100084.34
2023-04-24T19:51:43.455Z,100083.13
2023-04-24T19:54:20.548Z,100089.56
2023-04-24T19:56:51.543Z,100082.72
2023-04-24T19:59:27.365Z,100088.81
2023-04-24T20:02:07.857Z,100085.94
2023-04-24T20:04:46.179Z,100093.25
2023-04-24T20:07:19.261Z,100099.28
2023-04-24T20:09:57.413Z,100097.69
2023-04-24T20:12:34.460Z,100098.09
2023-04-24T20:15:07.534Z,100096.50
2023-04-24T20:17:37.730Z,100098.91
2023-04-24T20:20:13.462Z,100096.88
2023-04-24T20:22:51.670Z,100101.38
2023-04-24T20:25:22.063Z,100103.38
2023-04-24T20:27:57.399Z,100104.59
2023-04-24T20:30:31.501Z,100106.19
2023-04-24T20:33:08.380Z,100109.44
2023-04-24T20:35:46.533Z,100109.06
2023-04-24T20:38:23.100Z,100105.44
2023-04-24T20:40:57.983Z,100102.22
2023-04-24T20:43:31.286Z,100110.28
2023-04-24T20:46:11.416Z,100111.50
2023-04-24T20:48:47.481Z,100110.31
2023-04-24T20:51:22.398Z,100120.00
2023-04-24T20:53:59.430Z,100121.19
2023-04-24T20:56:32.335Z,100117.56
2023-04-24T20:59:05.123Z,100117.22
2023-04-24T21:01:41.898Z,100114.38
2023-04-24T21:04:20.007Z,100124.03
2023-04-24T21:06:52.547Z,100124.47
2023-04-24T21:09:22.596Z,100132.94
2023-04-24T21:12:02.882Z,100129.31
2023-04-24T21:14:35.918Z,100122.47
2023-04-24T21:17:11.485Z,100127.34
2023-04-24T21:19:44.479Z,100129.34
2023-04-24T21:22:16.922Z,100123.69
2023-04-24T21:24:56.013Z,100120.06
2023-04-24T21:27:31.803Z,100118.84
2023-04-24T21:30:08.201Z,100118.44
2023-04-24T21:32:47.441Z,100106.31
2023-04-24T21:35:18.152Z,100117.25
2023-04-24T21:37:51.003Z,100115.25
2023-04-24T21:40:25.925Z,100118.06
2023-04-24T21:43:04.009Z,100120.91
2023-04-24T21:45:39.856Z,100118.06
2023-04-24T21:48:18.530Z,100115.66
2023-04-24T21:50:51.349Z,100123.34
2023-04-24T21:53:27.397Z,100118.47
2023-04-24T21:56:02.147Z,100124.59
2023-04-24T21:58:35.272Z,100125.75
2023-04-24T22:01:10.904Z,100127.38
2023-04-24T22:03:46.811Z,100121.72
2023-04-24T22:06:20.100Z,100122.09
2023-04-24T22:09:01.277Z,100116.47
2023-04-24T22:11:34.334Z,100118.91
2023-04-24T22:14:07.285Z,100118.94
2023-04-24T22:16:48.012Z,100125.41
2023-04-24T22:19:23.293Z,100126.59
2023-04-24T22:22:02.117Z,100141.56
2023-04-24T22:24:39.602Z,100143.16
2023-04-24T22:27:14.780Z,100148.41
2023-04-24T22:29:50.458Z,100141.16
2023-04-24T22:32:34.468Z,100140.38
2023-04-24T22:35:07.966Z,100132.69
2023-04-24T22:37:43.727Z,100137.09
2023-04-24T22:40:19.660Z,100126.22
2023-04-24T22:42:49.963Z,100131.44
2023-04-24T22:45:23.834Z,100131.44
2023-04-24T22:48:03.440Z,100126.59
2023-04-24T22:50:36.707Z,100131.84
2023-04-24T22:53:12.439Z,100135.91
2023-04-24T22:55:45.304Z,100133.47
2023-04-24T22:58:21.931Z,100133.50
2023-04-24T23:01:00.205Z,100129.09
2023-04-24T23:03:35.924Z,100127.84
2023-04-24T23:06:13.188Z,100121.41
2023-04-24T23:08:40.461Z,100119.78
2023-04-24T23:11:19.832Z,100124.25
2023-04-24T23:13:59.533Z,100118.16
2023-04-24T23:16:32.226Z,100116.13
2023-04-24T23:19:05.217Z,100113.75
2023-04-24T23:21:46.346Z,100115.78
2023-04-24T23:24:24.701Z,100116.59
2023-04-24T23:26:59.880Z,100113.75
2023-04-24T23:29:32.703Z,100112.16
2023-04-24T23:32:13.718Z,100108.50
2023-04-24T23:34:49.521Z,100106.88
2023-04-24T23:37:22.398Z,100115.38
2023-04-24T23:40:06.127Z,100114.16
2023-04-24T23:42:41.555Z,100118.19
2023-04-24T23:45:11.892Z,100117.81
2023-04-24T23:47:42.324Z,100108.50
2023-04-24T23:50:21.135Z,100109.31
2023-04-24T23:52:53.968Z,100107.31
2023-04-24T23:55:27.275Z,100103.66
2023-04-24T23:58:02.763Z,100104.06
